createdAt,value
2022-09-15T00:02:10.413Z,99.99
2022-09-15T00:07:10.073Z,99.99
2022-09-15T00:12:10.023Z,99.99
2022-09-15T00:17:10.004Z,99.99
2022-09-15T00:22:09.864Z,99.99
2022-09-15T00:27:09.839Z,99.99
2022-09-15T00:32:09.967Z,99.99
2022-09-15T00:37:09.746Z,99.99
2022-09-15T00:42:09.634Z,99.99
2022-09-15T00:47:19.083Z,99.99
2022-09-15T00:52:10.465Z,99.99
2022-09-15T00:57:09.441Z,99.99
2022-09-15T01:02:09.381Z,99.99
2022-09-15T01:07:09.309Z,99.99
2022-09-15T01:12:09.226Z,99.99
2022-09-15T01:17:09.140Z,99.99
2022-09-15T01:22:09.068Z,99.99
2022-09-15T01:27:24.442Z,99.66
2022-09-15T01:32:09.958Z,99.25
2022-09-15T01:37:08.906Z,99.55
2022-09-15T01:42:08.882Z,99.96
2022-09-15T01:47:08.774Z,99.99
2022-09-15T01:52:08.933Z,99.55
2022-09-15T01:57:08.634Z,99.46
2022-09-15T02:02:08.610Z,99.99
2022-09-15T02:07:08.497Z,99.99
2022-09-15T02:12:08.481Z,99.99
2022-09-15T02:17:08.372Z,99.99
2022-09-15T02:22:08.291Z,99.99
2022-09-15T02:27:08.261Z,99.99
2022-09-15T02:32:08.233Z,99.99
2022-09-15T02:37:08.099Z,99.46
2022-09-15T02:42:08.024Z,99.35
2022-09-15T02:47:07.981Z,99.19
2022-09-15T02:52:07.901Z,98.79
2022-09-15T02:57:08.004Z,98.65
2022-09-15T03:02:07.769Z,98.34
2022-09-15T03:07:07.734Z,97.67
2022-09-15T03:12:07.617Z,98.28
2022-09-15T03:17:07.597Z,98.54
2022-09-15T03:22:07.515Z,98.39
2022-09-15T03:27:07.513Z,98.63
2022-09-15T03:32:07.384Z,99.14
2022-09-15T03:37:07.308Z,99.55
2022-09-15T03:42:07.246Z,98.99
2022-09-15T03:47:07.218Z,98.90
2022-09-15T03:52:07.113Z,99.65
2022-09-15T03:57:07.050Z,99.99
2022-09-15T04:02:07.020Z,99.99
2022-09-15T04:07:06.970Z,99.99
2022-09-15T04:12:06.976Z,99.99
2022-09-15T04:17:06.772Z,99.50
2022-09-15T04:22:06.709Z,99.30
2022-09-15T04:27:06.641Z,99.10
2022-09-15T04:32:06.621Z,99.35
2022-09-15T04:37:06.536Z,99.35
2022-09-15T04:42:06.449Z,99.55
2022-09-15T04:47:06.493Z,99.99
2022-09-15T04:52:09.631Z,99.44
2022-09-15T04:57:06.282Z,99.14
2022-09-15T05:02:06.245Z,99.24
2022-09-15T05:07:06.294Z,98.54
2022-09-15T05:12:06.089Z,99.04
2022-09-15T05:17:06.004Z,98.28
2022-09-15T05:22:05.935Z,97.98
2022-09-15T05:27:05.910Z,98.08
2022-09-15T05:32:05.783Z,97.38
2022-09-15T05:37:05.708Z,96.87
2022-09-15T05:42:05.659Z,97.43
2022-09-15T05:47:05.598Z,96.22
2022-09-15T05:52:05.525Z,96.11
2022-09-15T05:57:05.483Z,95.56
2022-09-15T06:02:05.449Z,95.36
2022-09-15T06:07:05.315Z,95.62
2022-09-15T06:12:05.415Z,95.37
2022-09-15T06:17:05.211Z,93.15
2022-09-15T06:22:05.158Z,92.69
2022-09-15T06:27:05.073Z,90.63
2022-09-15T06:32:05.157Z,89.12
2022-09-15T06:37:04.940Z,88.77
2022-09-15T06:42:05.922Z,88.95
2022-09-15T06:47:04.778Z,86.21
2022-09-15T06:52:04.751Z,81.26
2022-09-15T06:57:04.691Z,81.13
2022-09-15T07:02:05.373Z,80.87
2022-09-15T07:07:04.574Z,81.01
2022-09-15T07:12:04.499Z,80.97
2022-09-15T07:17:04.703Z,81.07
2022-09-15T07:22:04.374Z,81.41
2022-09-15T07:27:04.279Z,81.21
2022-09-15T07:32:04.303Z,81.21
2022-09-15T07:37:04.193Z,81.51
2022-09-15T07:42:04.056Z,80.26
2022-09-15T07:47:04.046Z,80.50
2022-09-15T07:52:04.955Z,81.01
2022-09-15T07:57:03.895Z,79.76
2022-09-15T08:02:03.862Z,79.52
2022-09-15T08:07:03.780Z,78.51
2022-09-15T08:12:03.735Z,77.57
2022-09-15T08:17:07.022Z,77.97
2022-09-15T08:22:04.694Z,76.93
2022-09-15T08:27:03.504Z,78.88
2022-09-15T08:32:03.429Z,78.65
2022-09-15T08:37:03.338Z,79.23
2022-09-15T08:42:03.266Z,80.04
2022-09-15T08:47:03.235Z,79.90
2022-09-15T08:52:03.158Z,79.11
2022-09-15T08:57:03.070Z,75.05
2022-09-15T09:02:03.122Z,75.12
2022-09-15T09:07:02.945Z,73.91
2022-09-15T09:12:02.883Z,73.21
2022-09-15T09:17:02.852Z,74.41
2022-09-15T09:22:02.797Z,69.82
2022-09-15T09:27:02.911Z,69.56
2022-09-15T09:32:02.619Z,69.59
2022-09-15T09:37:02.579Z,68.88
2022-09-15T09:42:02.526Z,68.79
2022-09-15T09:47:02.446Z,70.73
2022-09-15T09:52:02.393Z,68.68
2022-09-15T09:57:02.323Z,69.39
2022-09-15T10:02:02.233Z,71.36
2022-09-15T10:07:02.211Z,71.30
2022-09-15T10:12:02.263Z,75.12
2022-09-15T10:17:02.161Z,73.95
2022-09-15T10:22:02.025Z,75.09
2022-09-15T10:27:02.247Z,74.89
2022-09-15T10:32:01.984Z,74.79
2022-09-15T10:37:01.914Z,72.54
2022-09-15T10:42:01.736Z,72.00
2022-09-15T10:47:01.671Z,70.03
2022-09-15T10:52:01.584Z,70.73
2022-09-15T10:57:01.523Z,69.22
2022-09-15T11:02:01.501Z,67.99
2022-09-15T11:07:01.404Z,66.45
2022-09-15T11:12:01.323Z,66.15
2022-09-15T11:17:01.253Z,67.15
2022-09-15T11:22:01.221Z,66.25
2022-09-15T11:27:01.107Z,66.05
2022-09-15T11:37:01.085Z,65.09
2022-09-15T11:42:00.948Z,66.05
2022-09-15T11:47:00.912Z,62.42
2022-09-15T11:52:00.799Z,61.42
2022-09-15T11:57:00.782Z,63.69
2022-09-15T12:02:00.700Z,62.62
2022-09-15T12:12:00.521Z,63.85
2022-09-15T12:17:00.559Z,61.32
2022-09-15T12:22:00.394Z,62.16
2022-09-15T12:27:00.341Z,61.42
2022-09-15T12:32:00.264Z,62.45
2022-09-15T12:42:00.213Z,61.65
2022-09-15T12:47:00.131Z,63.28
2022-09-15T12:52:00.068Z,63.28
2022-09-15T12:57:00.007Z,63.08
2022-09-15T13:01:59.913Z,65.64
2022-09-15T13:06:59.793Z,67.44
2022-09-15T13:11:59.772Z,67.78
2022-09-15T13:16:59.678Z,69.32
2022-09-15T13:21:59.619Z,70.56
2022-09-15T13:26:59.548Z,72.81
2022-09-15T13:31:59.479Z,73.45
2022-09-15T13:42:00.339Z,75.06
2022-09-15T13:46:59.682Z,75.50
2022-09-15T13:51:59.202Z,77.72
2022-09-15T13:56:59.172Z,80.18
2022-09-15T14:01:59.177Z,78.30
2022-09-15T14:07:00.982Z,78.53
2022-09-15T14:11:58.955Z,78.23
2022-09-15T14:16:58.968Z,77.86
2022-09-15T14:21:58.978Z,79.72
2022-09-15T14:26:58.761Z,80.59
2022-09-15T14:31:58.756Z,79.68
2022-09-15T14:36:58.635Z,79.48
2022-09-15T14:46:58.498Z,78.19
2022-09-15T14:51:58.590Z,78.66
2022-09-15T14:56:58.367Z,78.12
2022-09-15T15:01:58.368Z,76.34
2022-09-15T15:06:58.240Z,76.24
2022-09-15T15:11:58.195Z,76.24
2022-09-15T15:16:58.229Z,76.00
2022-09-15T15:21:59.378Z,72.98
2022-09-15T15:26:58.001Z,74.59
2022-09-15T15:31:57.934Z,73.58
2022-09-15T15:36:57.844Z,74.99
2022-09-15T15:41:57.879Z,73.42
2022-09-15T15:46:57.712Z,74.56
2022-09-15T15:51:57.638Z,74.76
2022-09-15T15:56:57.713Z,75.77
2022-09-15T16:01:57.633Z,76.72
2022-09-15T16:06:57.464Z,77.42
2022-09-15T16:16:58.265Z,74.90
2022-09-15T16:21:57.247Z,74.80
2022-09-15T16:26:57.226Z,75.31
2022-09-15T16:31:57.158Z,76.62
2022-09-15T16:36:57.019Z,75.00
2022-09-15T16:41:57.046Z,77.83
2022-09-15T16:46:56.977Z,76.55
2022-09-15T16:51:56.867Z,77.06
2022-09-15T16:56:56.791Z,77.60
2022-09-15T17:01:56.919Z,76.99
2022-09-15T17:06:56.646Z,77.80
2022-09-15T17:11:56.591Z,77.43
2022-09-15T17:16:56.563Z,78.58
2022-09-15T17:21:56.494Z,80.91
2022-09-15T17:26:56.405Z,80.80
2022-09-15T17:31:56.310Z,81.21
2022-09-15T17:36:56.303Z,82.12
2022-09-15T17:41:56.291Z,82.76
2022-09-15T17:46:56.196Z,83.47
2022-09-15T17:51:56.052Z,84.28
2022-09-15T17:56:55.995Z,83.01
2022-09-15T18:01:56.024Z,84.33
2022-09-15T18:06:56.044Z,81.90
2022-09-15T18:11:55.797Z,83.11
2022-09-15T18:16:55.823Z,80.47
2022-09-15T18:21:55.682Z,81.09
2022-09-15T18:26:55.607Z,81.32
2022-09-15T18:31:55.536Z,80.62
2022-09-15T18:36:55.476Z,81.77
2022-09-15T18:41:55.431Z,82.62
2022-09-15T18:46:55.317Z,83.94
2022-09-15T18:51:55.281Z,83.23
2022-09-15T18:56:55.207Z,81.81
2022-09-15T19:01:55.508Z,81.30
2022-09-15T19:06:55.084Z,81.97
2022-09-15T19:11:55.198Z,80.96
2022-09-15T19:16:58.187Z,82.38
2022-09-15T19:21:54.901Z,81.30
2022-09-15T19:26:54.790Z,80.79
2022-09-15T19:31:54.759Z,79.68
2022-09-15T19:36:54.681Z,80.49
2022-09-15T19:41:54.633Z,79.68
2022-09-15T19:46:54.521Z,78.93
2022-09-15T19:51:54.495Z,79.03
2022-09-15T19:56:54.490Z,79.54
2022-09-15T20:01:54.332Z,78.73
2022-09-15T20:06:54.285Z,79.03
2022-09-15T20:11:54.212Z,77.88
2022-09-15T20:16:57.357Z,79.91
2022-09-15T20:21:55.068Z,79.54
2022-09-15T20:26:54.019Z,79.34
2022-09-15T20:31:53.999Z,80.25
2022-09-15T20:36:53.950Z,80.08
2022-09-15T20:41:53.843Z,78.56
2022-09-15T20:46:53.750Z,79.68
2022-09-15T20:51:53.676Z,79.78
2022-09-15T20:56:53.625Z,79.38
2022-09-15T21:01:53.565Z,80.19
2022-09-15T21:06:53.467Z,79.58
2022-09-15T21:11:53.777Z,79.13
2022-09-15T21:16:53.395Z,80.07
2022-09-15T21:21:53.624Z,76.15
2022-09-15T21:26:53.282Z,75.45
2022-09-15T21:31:53.217Z,76.66
2022-09-15T21:36:53.084Z,77.10
2022-09-15T21:41:53.068Z,76.90
2022-09-15T21:46:53.083Z,77.61
2022-09-15T21:51:52.922Z,78.35
2022-09-15T21:56:52.936Z,77.54
2022-09-15T22:01:52.815Z,79.13
2022-09-15T22:06:52.739Z,79.64
2022-09-15T22:11:52.640Z,79.00
2022-09-15T22:16:52.580Z,79.34
2022-09-15T22:21:52.523Z,79.54
2022-09-15T22:26:52.625Z,81.26
2022-09-15T22:31:52.423Z,82.01
2022-09-15T22:36:52.410Z,81.67
2022-09-15T22:41:52.248Z,80.35
2022-09-15T22:46:52.193Z,80.39
2022-09-15T22:51:52.120Z,81.10
2022-09-15T22:56:52.063Z,82.62
2022-09-15T23:01:52.007Z,82.11
2022-09-15T23:06:51.910Z,83.12
2022-09-15T23:11:51.850Z,82.62
2022-09-15T23:16:51.863Z,83.12
2022-09-15T23:21:51.726Z,82.17
2022-09-15T23:26:51.798Z,81.60
2022-09-15T23:31:51.830Z,83.03
2022-09-15T23:36:51.499Z,84.08
2022-09-15T23:41:51.471Z,85.74
2022-09-15T23:46:51.485Z,87.57
2022-09-15T23:51:51.381Z,86.29
2022-09-15T23:56:51.238Z,88.21
